sensor_id;sensor_type;location;lat;lon;timestamp;P1;durP1;ratioP1;P2;durP2;ratioP2
46897;SDS011;32646;50.958;6.258;2023-07-30T00:00:15;6.18;;;2.00;;
46897;SDS011;32646;50.958;6.258;2023-07-30T00:02:42;8.38;;;2.55;;
46897;SDS011;32646;50.958;6.258;2023-07-30T00:05:09;5.25;;;2.30;;
46897;SDS011;32646;50.958;6.258;2023-07-30T00:07:35;4.88;;;1.70;;
46897;SDS011;32646;50.958;6.258;2023-07-30T00:10:02;5.28;;;1.85;;
46897;SDS011;32646;50.958;6.258;2023-07-30T00:12:29;5.25;;;2.08;;
46897;SDS011;32646;50.958;6.258;2023-07-30T00:14:55;4.53;;;1.88;;
46897;SDS011;32646;50.958;6.258;2023-07-30T00:17:22;7.60;;;1.90;;
46897;SDS011;32646;50.958;6.258;2023-07-30T00:19:48;5.78;;;2.13;;
46897;SDS011;32646;50.958;6.258;2023-07-30T00:22:15;7.90;;;2.33;;
46897;SDS011;32646;50.958;6.258;2023-07-30T00:24:42;4.70;;;1.85;;
46897;SDS011;32646;50.958;6.258;2023-07-30T00:27:08;7.25;;;2.45;;
46897;SDS011;32646;50.958;6.258;2023-07-30T00:29:35;5.55;;;1.90;;
46897;SDS011;32646;50.958;6.258;2023-07-30T00:32:01;5.90;;;2.03;;
46897;SDS011;32646;50.958;6.258;2023-07-30T00:34:28;5.30;;;1.95;;
46897;SDS011;32646;50.958;6.258;2023-07-30T00:36:54;6.30;;;2.00;;
46897;SDS011;32646;50.958;6.258;2023-07-30T00:39:21;3.88;;;1.50;;
46897;SDS011;32646;50.958;6.258;2023-07-30T00:41:48;4.72;;;1.83;;
46897;SDS011;32646;50.958;6.258;2023-07-30T00:44:14;3.15;;;1.30;;
46897;SDS011;32646;50.958;6.258;2023-07-30T00:46:41;6.97;;;1.85;;
46897;SDS011;32646;50.958;6.258;2023-07-30T00:49:07;5.38;;;1.80;;
46897;SDS011;32646;50.958;6.258;2023-07-30T00:51:34;5.78;;;1.60;;
46897;SDS011;32646;50.958;6.258;2023-07-30T00:54:01;5.78;;;2.10;;
46897;SDS011;32646;50.958;6.258;2023-07-30T00:56:28;8.65;;;1.98;;
46897;SDS011;32646;50.958;6.258;2023-07-30T00:58:56;7.50;;;1.90;;
46897;SDS011;32646;50.958;6.258;2023-07-30T01:01:22;7.60;;;1.95;;
46897;SDS011;32646;50.958;6.258;2023-07-30T01:03:49;5.85;;;1.83;;
46897;SDS011;32646;50.958;6.258;2023-07-30T01:06:16;3.92;;;1.65;;
46897;SDS011;32646;50.958;6.258;2023-07-30T01:08:43;8.82;;;2.15;;
46897;SDS011;32646;50.958;6.258;2023-07-30T01:11:10;5.47;;;1.65;;
46897;SDS011;32646;50.958;6.258;2023-07-30T01:13:37;7.75;;;1.90;;
46897;SDS011;32646;50.958;6.258;2023-07-30T01:16:05;4.90;;;1.55;;
46897;SDS011;32646;50.958;6.258;2023-07-30T01:18:32;5.80;;;1.98;;
46897;SDS011;32646;50.958;6.258;2023-07-30T01:20:59;5.07;;;1.83;;
46897;SDS011;32646;50.958;6.258;2023-07-30T01:23:26;5.97;;;1.58;;
46897;SDS011;32646;50.958;6.258;2023-07-30T01:25:56;4.93;;;1.65;;
46897;SDS011;32646;50.958;6.258;2023-07-30T01:28:37;6.05;;;1.75;;
46897;SDS011;32646;50.958;6.258;2023-07-30T01:31:09;4.40;;;1.73;;
46897;SDS011;32646;50.958;6.258;2023-07-30T01:33:40;6.75;;;1.98;;
46897;SDS011;32646;50.958;6.258;2023-07-30T01:36:08;6.53;;;1.95;;
46897;SDS011;32646;50.958;6.258;2023-07-30T01:38:37;4.25;;;1.83;;
46897;SDS011;32646;50.958;6.258;2023-07-30T01:41:04;3.97;;;1.40;;
46897;SDS011;32646;50.958;6.258;2023-07-30T01:43:31;6.78;;;1.70;;
46897;SDS011;32646;50.958;6.258;2023-07-30T01:45:58;4.20;;;1.77;;
46897;SDS011;32646;50.958;6.258;2023-07-30T01:48:24;4.97;;;2.00;;
46897;SDS011;32646;50.958;6.258;2023-07-30T01:50:51;7.63;;;1.67;;
46897;SDS011;32646;50.958;6.258;2023-07-30T01:53:18;4.03;;;1.63;;
46897;SDS011;32646;50.958;6.258;2023-07-30T01:55:44;7.50;;;1.88;;
46897;SDS011;32646;50.958;6.258;2023-07-30T01:58:11;5.78;;;1.88;;
46897;SDS011;32646;50.958;6.258;2023-07-30T02:00:38;4.63;;;1.40;;
46897;SDS011;32646;50.958;6.258;2023-07-30T02:03:05;6.00;;;1.92;;
46897;SDS011;32646;50.958;6.258;2023-07-30T02:05:33;6.78;;;1.60;;
46897;SDS011;32646;50.958;6.258;2023-07-30T02:08:00;3.65;;;1.50;;
46897;SDS011;32646;50.958;6.258;2023-07-30T02:10:27;3.90;;;1.40;;
46897;SDS011;32646;50.958;6.258;2023-07-30T02:12:54;4.32;;;1.45;;
46897;SDS011;32646;50.958;6.258;2023-07-30T02:15:20;8.38;;;1.90;;
46897;SDS011;32646;50.958;6.258;2023-07-30T02:17:47;7.00;;;1.77;;
46897;SDS011;32646;50.958;6.258;2023-07-30T02:20:14;5.45;;;1.45;;
46897;SDS011;32646;50.958;6.258;2023-07-30T02:22:40;5.80;;;2.05;;
46897;SDS011;32646;50.958;6.258;2023-07-30T02:25:07;6.30;;;1.90;;
46897;SDS011;32646;50.958;6.258;2023-07-30T02:27:34;4.32;;;1.63;;
46897;SDS011;32646;50.958;6.258;2023-07-30T02:30:00;7.05;;;2.10;;
46897;SDS011;32646;50.958;6.258;2023-07-30T02:32:28;6.15;;;1.67;;
46897;SDS011;32646;50.958;6.258;2023-07-30T02:34:55;7.30;;;2.35;;
46897;SDS011;32646;50.958;6.258;2023-07-30T02:37:21;5.03;;;1.40;;
46897;SDS011;32646;50.958;6.258;2023-07-30T02:39:48;4.97;;;1.75;;
46897;SDS011;32646;50.958;6.258;2023-07-30T02:42:14;6.75;;;1.40;;
46897;SDS011;32646;50.958;6.258;2023-07-30T02:44:41;4.80;;;0.93;;
46897;SDS011;32646;50.958;6.258;2023-07-30T02:47:07;6.53;;;1.40;;
46897;SDS011;32646;50.958;6.258;2023-07-30T02:49:34;2.83;;;1.02;;
46897;SDS011;32646;50.958;6.258;2023-07-30T02:52:00;3.25;;;0.90;;
46897;SDS011;32646;50.958;6.258;2023-07-30T02:54:27;4.00;;;1.02;;
46897;SDS011;32646;50.958;6.258;2023-07-30T02:56:54;3.88;;;1.10;;
46897;SDS011;32646;50.958;6.258;2023-07-30T02:59:20;3.30;;;0.90;;
46897;SDS011;32646;50.958;6.258;2023-07-30T03:01:47;6.47;;;1.23;;
46897;SDS011;32646;50.958;6.258;2023-07-30T03:04:13;4.55;;;1.00;;
46897;SDS011;32646;50.958;6.258;2023-07-30T03:06:40;5.18;;;0.75;;
46897;SDS011;32646;50.958;6.258;2023-07-30T03:09:06;5.05;;;1.13;;
46897;SDS011;32646;50.958;6.258;2023-07-30T03:11:33;3.08;;;0.80;;
46897;SDS011;32646;50.958;6.258;2023-07-30T03:14:00;2.63;;;0.75;;
46897;SDS011;32646;50.958;6.258;2023-07-30T03:16:26;3.40;;;0.95;;
46897;SDS011;32646;50.958;6.258;2023-07-30T03:18:53;2.42;;;0.77;;
46897;SDS011;32646;50.958;6.258;2023-07-30T03:21:19;3.78;;;0.80;;
46897;SDS011;32646;50.958;6.258;2023-07-30T03:23:46;3.72;;;0.82;;
46897;SDS011;32646;50.958;6.258;2023-07-30T03:26:13;4.00;;;0.90;;
46897;SDS011;32646;50.958;6.258;2023-07-30T03:28:39;4.53;;;0.90;;
46897;SDS011;32646;50.958;6.258;2023-07-30T03:31:06;5.78;;;1.35;;
46897;SDS011;32646;50.958;6.258;2023-07-30T03:33:33;2.38;;;0.80;;
46897;SDS011;32646;50.958;6.258;2023-07-30T03:35:59;3.95;;;1.00;;
46897;SDS011;32646;50.958;6.258;2023-07-30T03:38:26;3.13;;;1.00;;
46897;SDS011;32646;50.958;6.258;2023-07-30T03:40:52;7.38;;;1.40;;
46897;SDS011;32646;50.958;6.258;2023-07-30T03:43:19;2.72;;;0.85;;
46897;SDS011;32646;50.958;6.258;2023-07-30T03:45:46;4.03;;;0.85;;
46897;SDS011;32646;50.958;6.258;2023-07-30T03:48:12;3.58;;;0.80;;
46897;SDS011;32646;50.958;6.258;2023-07-30T03:50:39;3.28;;;0.75;;
46897;SDS011;32646;50.958;6.258;2023-07-30T03:53:05;6.45;;;1.27;;
46897;SDS011;32646;50.958;6.258;2023-07-30T03:55:32;3.47;;;0.88;;
46897;SDS011;32646;50.958;6.258;2023-07-30T03:57:58;2.45;;;0.95;;
46897;SDS011;32646;50.958;6.258;2023-07-30T04:00:25;2.78;;;1.00;;
46897;SDS011;32646;50.958;6.258;2023-07-30T04:02:52;4.95;;;0.85;;
46897;SDS011;32646;50.958;6.258;2023-07-30T04:05:18;2.22;;;0.70;;
46897;SDS011;32646;50.958;6.258;2023-07-30T04:07:45;5.22;;;1.10;;
46897;SDS011;32646;50.958;6.258;2023-07-30T04:10:12;2.80;;;0.73;;
46897;SDS011;32646;50.958;6.258;2023-07-30T04:12:38;2.38;;;0.73;;
46897;SDS011;32646;50.958;6.258;2023-07-30T04:15:05;3.00;;;0.75;;
46897;SDS011;32646;50.958;6.258;2023-07-30T04:17:32;9.38;;;1.10;;
46897;SDS011;32646;50.958;6.258;2023-07-30T04:19:59;2.10;;;0.63;;
46897;SDS011;32646;50.958;6.258;2023-07-30T04:22:26;4.53;;;1.00;;
46897;SDS011;32646;50.958;6.258;2023-07-30T04:24:52;3.78;;;0.70;;
46897;SDS011;32646;50.958;6.258;2023-07-30T04:27:19;5.65;;;1.20;;
46897;SDS011;32646;50.958;6.258;2023-07-30T04:29:46;5.03;;;1.00;;
46897;SDS011;32646;50.958;6.258;2023-07-30T04:32:13;2.28;;;1.08;;
46897;SDS011;32646;50.958;6.258;2023-07-30T04:34:39;2.75;;;1.00;;
46897;SDS011;32646;50.958;6.258;2023-07-30T04:37:06;3.63;;;1.08;;
46897;SDS011;32646;50.958;6.258;2023-07-30T04:39:32;5.00;;;1.13;;
46897;SDS011;32646;50.958;6.258;2023-07-30T04:41:59;4.40;;;1.30;;
46897;SDS011;32646;50.958;6.258;2023-07-30T04:44:26;3.08;;;0.90;;
46897;SDS011;32646;50.958;6.258;2023-07-30T04:46:53;6.20;;;1.40;;
46897;SDS011;32646;50.958;6.258;2023-07-30T04:49:19;5.53;;;1.00;;
46897;SDS011;32646;50.958;6.258;2023-07-30T04:51:46;2.88;;;1.00;;
46897;SDS011;32646;50.958;6.258;2023-07-30T04:54:12;2.85;;;0.88;;
46897;SDS011;32646;50.958;6.258;2023-07-30T04:56:39;6.13;;;2.17;;
46897;SDS011;32646;50.958;6.258;2023-07-30T04:59:06;3.05;;;0.85;;
46897;SDS011;32646;50.958;6.258;2023-07-30T05:01:32;4.78;;;1.08;;
46897;SDS011;32646;50.958;6.258;2023-07-30T05:03:59;4.07;;;1.02;;
46897;SDS011;32646;50.958;6.258;2023-07-30T05:06:26;2.90;;;1.00;;
46897;SDS011;32646;50.958;6.258;2023-07-30T05:08:54;4.93;;;1.00;;
46897;SDS011;32646;50.958;6.258;2023-07-30T05:11:20;2.90;;;1.10;;
46897;SDS011;32646;50.958;6.258;2023-07-30T05:13:47;5.20;;;0.95;;
46897;SDS011;32646;50.958;6.258;2023-07-30T05:16:13;4.55;;;1.20;;
46897;SDS011;32646;50.958;6.258;2023-07-30T05:18:40;6.95;;;2.05;;
46897;SDS011;32646;50.958;6.258;2023-07-30T05:21:10;4.18;;;1.08;;
46897;SDS011;32646;50.958;6.258;2023-07-30T05:23:37;5.70;;;1.10;;
46897;SDS011;32646;50.958;6.258;2023-07-30T05:26:04;5.55;;;1.35;;
46897;SDS011;32646;50.958;6.258;2023-07-30T05:28:30;5.55;;;1.58;;
46897;SDS011;32646;50.958;6.258;2023-07-30T05:31:00;4.75;;;1.13;;
46897;SDS011;32646;50.958;6.258;2023-07-30T05:33:26;3.30;;;1.27;;
46897;SDS011;32646;50.958;6.258;2023-07-30T05:35:53;5.38;;;1.23;;
46897;SDS011;32646;50.958;6.258;2023-07-30T05:38:19;5.65;;;1.17;;
46897;SDS011;32646;50.958;6.258;2023-07-30T05:40:46;5.07;;;1.23;;
46897;SDS011;32646;50.958;6.258;2023-07-30T05:43:13;4.43;;;1.20;;
46897;SDS011;32646;50.958;6.258;2023-07-30T05:45:39;6.45;;;1.50;;
46897;SDS011;32646;50.958;6.258;2023-07-30T05:48:07;4.50;;;1.33;;
46897;SDS011;32646;50.958;6.258;2023-07-30T05:50:33;3.92;;;0.93;;
46897;SDS011;32646;50.958;6.258;2023-07-30T05:53:00;5.07;;;1.35;;
46897;SDS011;32646;50.958;6.258;2023-07-30T05:55:26;4.38;;;0.98;;
46897;SDS011;32646;50.958;6.258;2023-07-30T05:57:53;2.38;;;0.98;;
46897;SDS011;32646;50.958;6.258;2023-07-30T06:00:21;4.05;;;1.10;;
46897;SDS011;32646;50.958;6.258;2023-07-30T06:02:47;4.18;;;0.93;;
46897;SDS011;32646;50.958;6.258;2023-07-30T06:05:14;4.35;;;1.08;;
46897;SDS011;32646;50.958;6.258;2023-07-30T06:07:41;4.97;;;1.33;;
46897;SDS011;32646;50.958;6.258;2023-07-30T06:10:07;2.58;;;1.15;;
46897;SDS011;32646;50.958;6.258;2023-07-30T06:12:34;4.32;;;1.40;;
46897;SDS011;32646;50.958;6.258;2023-07-30T06:15:01;5.82;;;1.30;;
46897;SDS011;32646;50.958;6.258;2023-07-30T06:17:27;4.55;;;1.38;;
46897;SDS011;32646;50.958;6.258;2023-07-30T06:19:56;5.93;;;1.88;;
46897;SDS011;32646;50.958;6.258;2023-07-30T06:22:23;5.47;;;1.27;;
46897;SDS011;32646;50.958;6.258;2023-07-30T06:24:49;4.40;;;1.02;;
46897;SDS011;32646;50.958;6.258;2023-07-30T06:27:16;3.30;;;0.90;;
46897;SDS011;32646;50.958;6.258;2023-07-30T06:29:43;2.70;;;0.93;;
46897;SDS011;32646;50.958;6.258;2023-07-30T06:32:09;5.18;;;1.30;;
46897;SDS011;32646;50.958;6.258;2023-07-30T06:34:36;3.58;;;1.10;;
46897;SDS011;32646;50.958;6.258;2023-07-30T06:37:03;5.82;;;1.10;;
46897;SDS011;32646;50.958;6.258;2023-07-30T06:39:29;4.65;;;1.23;;
46897;SDS011;32646;50.958;6.258;2023-07-30T06:41:56;3.20;;;1.20;;
46897;SDS011;32646;50.958;6.258;2023-07-30T06:44:22;7.82;;;1.63;;
46897;SDS011;32646;50.958;6.258;2023-07-30T06:46:49;3.40;;;1.02;;
46897;SDS011;32646;50.958;6.258;2023-07-30T06:49:16;7.93;;;1.40;;
46897;SDS011;32646;50.958;6.258;2023-07-30T06:51:42;7.35;;;1.58;;
46897;SDS011;32646;50.958;6.258;2023-07-30T06:54:09;2.97;;;1.02;;
46897;SDS011;32646;50.958;6.258;2023-07-30T06:56:36;7.47;;;1.55;;
46897;SDS011;32646;50.958;6.258;2023-07-30T06:59:02;4.68;;;1.00;;
46897;SDS011;32646;50.958;6.258;2023-07-30T07:01:29;5.47;;;1.42;;
46897;SDS011;32646;50.958;6.258;2023-07-30T07:03:55;6.05;;;1.48;;
46897;SDS011;32646;50.958;6.258;2023-07-30T07:06:22;4.07;;;1.33;;
46897;SDS011;32646;50.958;6.258;2023-07-30T07:08:48;4.07;;;1.10;;
46897;SDS011;32646;50.958;6.258;2023-07-30T07:11:15;5.57;;;1.25;;
46897;SDS011;32646;50.958;6.258;2023-07-30T07:13:42;8.07;;;1.77;;
46897;SDS011;32646;50.958;6.258;2023-07-30T07:16:08;6.00;;;1.58;;
46897;SDS011;32646;50.958;6.258;2023-07-30T07:18:35;4.63;;;1.50;;
46897;SDS011;32646;50.958;6.258;2023-07-30T07:21:01;5.88;;;1.85;;
46897;SDS011;32646;50.958;6.258;2023-07-30T07:23:28;9.52;;;1.65;;
46897;SDS011;32646;50.958;6.258;2023-07-30T07:25:54;6.78;;;2.03;;
46897;SDS011;32646;50.958;6.258;2023-07-30T07:28:22;8.50;;;1.80;;
46897;SDS011;32646;50.958;6.258;2023-07-30T07:30:48;6.85;;;1.65;;
46897;SDS011;32646;50.958;6.258;2023-07-30T07:33:15;9.18;;;1.65;;
46897;SDS011;32646;50.958;6.258;2023-07-30T07:35:42;4.85;;;1.55;;
46897;SDS011;32646;50.958;6.258;2023-07-30T07:38:08;5.82;;;2.10;;
46897;SDS011;32646;50.958;6.258;2023-07-30T07:40:38;7.60;;;1.27;;
46897;SDS011;32646;50.958;6.258;2023-07-30T07:43:05;7.32;;;2.05;;
46897;SDS011;32646;50.958;6.258;2023-07-30T07:45:33;6.93;;;1.83;;
46897;SDS011;32646;50.958;6.258;2023-07-30T07:47:59;5.32;;;1.58;;
46897;SDS011;32646;50.958;6.258;2023-07-30T07:50:26;5.45;;;1.42;;
46897;SDS011;32646;50.958;6.258;2023-07-30T07:52:53;6.95;;;1.80;;
46897;SDS011;32646;50.958;6.258;2023-07-30T07:55:20;6.50;;;2.08;;
46897;SDS011;32646;50.958;6.258;2023-07-30T07:57:46;7.93;;;2.45;;
46897;SDS011;32646;50.958;6.258;2023-07-30T08:00:13;5.22;;;1.60;;
46897;SDS011;32646;50.958;6.258;2023-07-30T08:02:39;7.57;;;2.03;;
46897;SDS011;32646;50.958;6.258;2023-07-30T08:05:06;7.88;;;1.70;;
46897;SDS011;32646;50.958;6.258;2023-07-30T08:07:33;9.55;;;1.83;;
46897;SDS011;32646;50.958;6.258;2023-07-30T08:09:59;7.43;;;1.75;;
46897;SDS011;32646;50.958;6.258;2023-07-30T08:12:26;10.70;;;1.95;;
46897;SDS011;32646;50.958;6.258;2023-07-30T08:14:53;6.57;;;1.40;;
46897;SDS011;32646;50.958;6.258;2023-07-30T08:17:19;5.57;;;1.40;;
46897;SDS011;32646;50.958;6.258;2023-07-30T08:19:46;8.63;;;1.38;;
46897;SDS011;32646;50.958;6.258;2023-07-30T08:22:12;8.77;;;1.98;;
46897;SDS011;32646;50.958;6.258;2023-07-30T08:24:39;9.00;;;1.52;;
46897;SDS011;32646;50.958;6.258;2023-07-30T08:27:05;6.20;;;1.52;;
46897;SDS011;32646;50.958;6.258;2023-07-30T08:29:32;5.43;;;1.70;;
46897;SDS011;32646;50.958;6.258;2023-07-30T08:32:00;5.20;;;1.77;;
46897;SDS011;32646;50.958;6.258;2023-07-30T08:34:27;4.93;;;1.23;;
46897;SDS011;32646;50.958;6.258;2023-07-30T08:36:53;6.50;;;1.33;;
46897;SDS011;32646;50.958;6.258;2023-07-30T08:39:20;7.85;;;1.52;;
46897;SDS011;32646;50.958;6.258;2023-07-30T08:41:46;7.60;;;1.70;;
46897;SDS011;32646;50.958;6.258;2023-07-30T08:44:13;5.85;;;1.67;;
46897;SDS011;32646;50.958;6.258;2023-07-30T08:46:40;7.57;;;1.70;;
46897;SDS011;32646;50.958;6.258;2023-07-30T08:49:06;5.05;;;1.45;;
46897;SDS011;32646;50.958;6.258;2023-07-30T08:51:33;7.97;;;1.60;;
46897;SDS011;32646;50.958;6.258;2023-07-30T08:54:03;6.43;;;1.77;;
46897;SDS011;32646;50.958;6.258;2023-07-30T08:56:30;8.73;;;1.60;;
46897;SDS011;32646;50.958;6.258;2023-07-30T08:58:57;7.00;;;1.67;;
46897;SDS011;32646;50.958;6.258;2023-07-30T09:01:27;7.15;;;1.83;;
46897;SDS011;32646;50.958;6.258;2023-07-30T09:03:57;6.35;;;1.63;;
46897;SDS011;32646;50.958;6.258;2023-07-30T09:06:24;8.30;;;1.92;;
46897;SDS011;32646;50.958;6.258;2023-07-30T09:08:50;5.10;;;1.85;;
46897;SDS011;32646;50.958;6.258;2023-07-30T09:11:17;8.10;;;1.65;;
46897;SDS011;32646;50.958;6.258;2023-07-30T09:13:44;7.40;;;1.65;;
46897;SDS011;32646;50.958;6.258;2023-07-30T09:16:11;6.60;;;1.30;;
46897;SDS011;32646;50.958;6.258;2023-07-30T09:18:39;6.18;;;1.33;;
46897;SDS011;32646;50.958;6.258;2023-07-30T09:21:11;8.40;;;1.60;;
46897;SDS011;32646;50.958;6.258;2023-07-30T09:23:42;5.50;;;1.25;;
46897;SDS011;32646;50.958;6.258;2023-07-30T09:26:10;4.45;;;1.05;;
46897;SDS011;32646;50.958;6.258;2023-07-30T09:28:37;7.68;;;1.52;;
46897;SDS011;32646;50.958;6.258;2023-07-30T09:31:06;4.60;;;1.20;;
46897;SDS011;32646;50.958;6.258;2023-07-30T09:33:47;6.53;;;1.10;;
46897;SDS011;32646;50.958;6.258;2023-07-30T09:36:14;5.68;;;1.13;;
46897;SDS011;32646;50.958;6.258;2023-07-30T09:38:44;3.50;;;1.00;;
46897;SDS011;32646;50.958;6.258;2023-07-30T09:41:11;4.55;;;1.45;;
46897;SDS011;32646;50.958;6.258;2023-07-30T09:43:38;5.65;;;1.10;;
46897;SDS011;32646;50.958;6.258;2023-07-30T09:46:06;3.92;;;1.00;;
46897;SDS011;32646;50.958;6.258;2023-07-30T09:48:33;6.88;;;1.23;;
46897;SDS011;32646;50.958;6.258;2023-07-30T09:51:03;4.90;;;0.90;;
46897;SDS011;32646;50.958;6.258;2023-07-30T09:53:30;7.15;;;1.60;;
46897;SDS011;32646;50.958;6.258;2023-07-30T09:55:57;5.55;;;1.02;;
46897;SDS011;32646;50.958;6.258;2023-07-30T09:58:23;4.18;;;0.93;;
46897;SDS011;32646;50.958;6.258;2023-07-30T10:00:50;3.53;;;0.73;;
46897;SDS011;32646;50.958;6.258;2023-07-30T10:03:18;7.68;;;1.15;;
46897;SDS011;32646;50.958;6.258;2023-07-30T10:05:46;5.15;;;0.80;;
46897;SDS011;32646;50.958;6.258;2023-07-30T10:08:21;3.88;;;1.00;;
46897;SDS011;32646;50.958;6.258;2023-07-30T10:10:51;4.38;;;0.95;;
46897;SDS011;32646;50.958;6.258;2023-07-30T10:13:21;4.20;;;1.48;;
46897;SDS011;32646;50.958;6.258;2023-07-30T10:15:49;6.43;;;0.90;;
46897;SDS011;32646;50.958;6.258;2023-07-30T10:18:16;2.67;;;0.70;;
46897;SDS011;32646;50.958;6.258;2023-07-30T10:20:45;3.20;;;0.70;;
46897;SDS011;32646;50.958;6.258;2023-07-30T10:23:18;5.10;;;0.80;;
46897;SDS011;32646;50.958;6.258;2023-07-30T10:25:49;5.78;;;1.85;;
46897;SDS011;32646;50.958;6.258;2023-07-30T10:30:58;3.88;;;0.93;;
46897;SDS011;32646;50.958;6.258;2023-07-30T10:36:31;6.68;;;1.20;;
46897;SDS011;32646;50.958;6.258;2023-07-30T10:41:46;5.18;;;1.00;;
46897;SDS011;32646;50.958;6.258;2023-07-30T10:46:51;5.65;;;0.93;;
46897;SDS011;32646;50.958;6.258;2023-07-30T10:49:19;5.30;;;1.20;;
46897;SDS011;32646;50.958;6.258;2023-07-30T10:51:45;3.28;;;0.70;;
46897;SDS011;32646;50.958;6.258;2023-07-30T10:54:12;5.20;;;1.20;;
46897;SDS011;32646;50.958;6.258;2023-07-30T10:56:39;5.68;;;0.90;;
46897;SDS011;32646;50.958;6.258;2023-07-30T10:59:06;6.43;;;1.10;;
46897;SDS011;32646;50.958;6.258;2023-07-30T11:01:42;4.43;;;1.15;;
46897;SDS011;32646;50.958;6.258;2023-07-30T11:04:10;4.03;;;1.13;;
46897;SDS011;32646;50.958;6.258;2023-07-30T11:06:38;4.30;;;1.00;;
46897;SDS011;32646;50.958;6.258;2023-07-30T11:09:05;5.05;;;0.98;;
46897;SDS011;32646;50.958;6.258;2023-07-30T11:11:31;3.92;;;0.85;;
46897;SDS011;32646;50.958;6.258;2023-07-30T11:13:58;4.75;;;1.13;;
46897;SDS011;32646;50.958;6.258;2023-07-30T11:16:25;3.75;;;0.98;;
46897;SDS011;32646;50.958;6.258;2023-07-30T11:18:51;4.53;;;0.95;;
46897;SDS011;32646;50.958;6.258;2023-07-30T11:21:18;4.00;;;0.93;;
46897;SDS011;32646;50.958;6.258;2023-07-30T11:23:45;2.80;;;0.73;;
46897;SDS011;32646;50.958;6.258;2023-07-30T11:26:14;3.97;;;1.00;;
46897;SDS011;32646;50.958;6.258;2023-07-30T11:28:43;4.32;;;1.45;;
46897;SDS011;32646;50.958;6.258;2023-07-30T11:31:11;2.05;;;0.80;;
46897;SDS011;32646;50.958;6.258;2023-07-30T11:33:47;3.92;;;1.08;;
46897;SDS011;32646;50.958;6.258;2023-07-30T11:36:16;4.07;;;1.00;;
46897;SDS011;32646;50.958;6.258;2023-07-30T11:38:47;3.72;;;1.20;;
46897;SDS011;32646;50.958;6.258;2023-07-30T11:41:14;7.38;;;1.60;;
46897;SDS011;32646;50.958;6.258;2023-07-30T11:43:42;3.63;;;0.95;;
46897;SDS011;32646;50.958;6.258;2023-07-30T11:48:36;6.70;;;1.20;;
46897;SDS011;32646;50.958;6.258;2023-07-30T11:51:03;4.03;;;0.93;;
46897;SDS011;32646;50.958;6.258;2023-07-30T11:53:49;6.85;;;1.20;;
46897;SDS011;32646;50.958;6.258;2023-07-30T11:56:18;5.25;;;0.90;;
46897;SDS011;32646;50.958;6.258;2023-07-30T11:58:49;6.82;;;1.23;;
46897;SDS011;32646;50.958;6.258;2023-07-30T12:01:17;4.80;;;1.10;;
46897;SDS011;32646;50.958;6.258;2023-07-30T12:03:45;5.60;;;1.40;;
46897;SDS011;32646;50.958;6.258;2023-07-30T12:06:12;6.05;;;1.30;;
46897;SDS011;32646;50.958;6.258;2023-07-30T12:08:39;4.05;;;1.20;;
46897;SDS011;32646;50.958;6.258;2023-07-30T12:11:06;4.97;;;0.90;;
46897;SDS011;32646;50.958;6.258;2023-07-30T12:13:34;5.72;;;0.95;;
46897;SDS011;32646;50.958;6.258;2023-07-30T12:16:09;3.25;;;0.90;;
46897;SDS011;32646;50.958;6.258;2023-07-30T12:18:36;5.35;;;1.10;;
46897;SDS011;32646;50.958;6.258;2023-07-30T12:21:02;5.63;;;1.15;;
46897;SDS011;32646;50.958;6.258;2023-07-30T12:23:29;5.05;;;1.55;;
46897;SDS011;32646;50.958;6.258;2023-07-30T12:25:55;5.10;;;1.00;;
46897;SDS011;32646;50.958;6.258;2023-07-30T12:28:22;3.78;;;0.82;;
46897;SDS011;32646;50.958;6.258;2023-07-30T12:30:48;4.57;;;0.90;;
46897;SDS011;32646;50.958;6.258;2023-07-30T12:33:15;7.28;;;1.40;;
46897;SDS011;32646;50.958;6.258;2023-07-30T12:35:42;5.97;;;1.38;;
46897;SDS011;32646;50.958;6.258;2023-07-30T12:38:08;5.75;;;1.30;;
46897;SDS011;32646;50.958;6.258;2023-07-30T12:40:35;3.03;;;0.80;;
46897;SDS011;32646;50.958;6.258;2023-07-30T12:43:02;5.38;;;1.30;;
46897;SDS011;32646;50.958;6.258;2023-07-30T12:45:29;4.68;;;1.17;;
46897;SDS011;32646;50.958;6.258;2023-07-30T12:47:56;4.90;;;0.95;;
46897;SDS011;32646;50.958;6.258;2023-07-30T12:50:23;4.10;;;0.95;;
46897;SDS011;32646;50.958;6.258;2023-07-30T12:52:50;4.22;;;1.25;;
46897;SDS011;32646;50.958;6.258;2023-07-30T12:55:17;3.47;;;1.00;;
46897;SDS011;32646;50.958;6.258;2023-07-30T12:57:43;4.15;;;1.15;;
46897;SDS011;32646;50.958;6.258;2023-07-30T13:00:10;5.75;;;1.13;;
46897;SDS011;32646;50.958;6.258;2023-07-30T13:02:37;3.90;;;1.35;;
46897;SDS011;32646;50.958;6.258;2023-07-30T13:05:04;5.15;;;1.13;;
46897;SDS011;32646;50.958;6.258;2023-07-30T13:07:30;4.72;;;1.25;;
46897;SDS011;32646;50.958;6.258;2023-07-30T13:10:04;4.93;;;0.90;;
46897;SDS011;32646;50.958;6.258;2023-07-30T13:12:31;3.53;;;1.00;;
46897;SDS011;32646;50.958;6.258;2023-07-30T13:14:58;8.02;;;1.30;;
46897;SDS011;32646;50.958;6.258;2023-07-30T13:17:25;6.95;;;1.30;;
46897;SDS011;32646;50.958;6.258;2023-07-30T13:19:52;3.95;;;1.10;;
46897;SDS011;32646;50.958;6.258;2023-07-30T13:22:19;5.10;;;0.90;;
46897;SDS011;32646;50.958;6.258;2023-07-30T13:24:46;5.07;;;1.33;;
46897;SDS011;32646;50.958;6.258;2023-07-30T13:27:12;4.35;;;1.02;;
46897;SDS011;32646;50.958;6.258;2023-07-30T13:29:39;5.50;;;1.00;;
46897;SDS011;32646;50.958;6.258;2023-07-30T13:32:06;3.63;;;1.02;;
46897;SDS011;32646;50.958;6.258;2023-07-30T13:34:32;4.07;;;1.00;;
46897;SDS011;32646;50.958;6.258;2023-07-30T13:36:59;4.53;;;1.20;;
46897;SDS011;32646;50.958;6.258;2023-07-30T13:39:25;5.13;;;1.00;;
46897;SDS011;32646;50.958;6.258;2023-07-30T13:41:52;4.40;;;0.90;;
46897;SDS011;32646;50.958;6.258;2023-07-30T13:44:19;3.40;;;0.80;;
46897;SDS011;32646;50.958;6.258;2023-07-30T13:46:46;4.93;;;1.23;;
46897;SDS011;32646;50.958;6.258;2023-07-30T13:49:13;5.80;;;0.90;;
46897;SDS011;32646;50.958;6.258;2023-07-30T13:51:39;4.80;;;1.38;;
46897;SDS011;32646;50.958;6.258;2023-07-30T13:54:06;4.63;;;1.05;;
46897;SDS011;32646;50.958;6.258;2023-07-30T13:56:33;2.88;;;0.80;;
46897;SDS011;32646;50.958;6.258;2023-07-30T13:58:59;4.10;;;0.90;;
46897;SDS011;32646;50.958;6.258;2023-07-30T14:01:27;3.80;;;1.05;;
46897;SDS011;32646;50.958;6.258;2023-07-30T14:03:54;4.47;;;0.90;;
46897;SDS011;32646;50.958;6.258;2023-07-30T14:06:21;3.95;;;1.00;;
46897;SDS011;32646;50.958;6.258;2023-07-30T14:08:48;5.78;;;0.93;;
46897;SDS011;32646;50.958;6.258;2023-07-30T14:11:15;4.45;;;0.90;;
46897;SDS011;32646;50.958;6.258;2023-07-30T14:13:41;4.25;;;0.90;;
46897;SDS011;32646;50.958;6.258;2023-07-30T14:16:08;4.68;;;1.02;;
46897;SDS011;32646;50.958;6.258;2023-07-30T14:18:35;4.38;;;1.20;;
46897;SDS011;32646;50.958;6.258;2023-07-30T14:21:01;5.95;;;2.13;;
46897;SDS011;32646;50.958;6.258;2023-07-30T14:23:28;2.95;;;0.57;;
46897;SDS011;32646;50.958;6.258;2023-07-30T14:25:54;3.88;;;0.93;;
46897;SDS011;32646;50.958;6.258;2023-07-30T14:28:21;5.07;;;1.15;;
46897;SDS011;32646;50.958;6.258;2023-07-30T14:30:48;6.72;;;0.98;;
46897;SDS011;32646;50.958;6.258;2023-07-30T14:33:14;3.08;;;0.60;;
46897;SDS011;32646;50.958;6.258;2023-07-30T14:35:41;4.45;;;0.80;;
46897;SDS011;32646;50.958;6.258;2023-07-30T14:38:08;2.35;;;0.70;;
46897;SDS011;32646;50.958;6.258;2023-07-30T14:40:34;5.65;;;1.10;;
46897;SDS011;32646;50.958;6.258;2023-07-30T14:43:01;4.30;;;0.90;;
46897;SDS011;32646;50.958;6.258;2023-07-30T14:45:27;3.72;;;1.13;;
46897;SDS011;32646;50.958;6.258;2023-07-30T14:47:54;3.83;;;1.20;;
46897;SDS011;32646;50.958;6.258;2023-07-30T14:50:21;4.65;;;0.90;;
46897;SDS011;32646;50.958;6.258;2023-07-30T14:52:47;4.03;;;1.13;;
46897;SDS011;32646;50.958;6.258;2023-07-30T14:55:14;2.88;;;0.88;;
46897;SDS011;32646;50.958;6.258;2023-07-30T14:57:40;5.72;;;1.48;;
46897;SDS011;32646;50.958;6.258;2023-07-30T15:00:07;4.13;;;0.85;;